Flight Track Log - Related Links

Times and Time Zones

All times are in EDT time to prevent confusion due to time zone crossing. See the LYM1725 flight status page for this flight to view local times or setup timezone preferences in your user account.

Time Position Orientation Groundspeed Altitude Reporting Facility
EDT Latitude Longitude Course Direction KTS MPH feet Rate Location/Type
Mon 09:10:16 PM 43.0117 -108.3647 120° Southeast 157 181 9,000  Level Denver Center
Mon 09:11:17 PM 42.9869 -108.3142 124° Southeast 171 197 10,700 1,613 Climbing Salt Lake Center
Mon 09:13:22 PM 42.9211 -108.2050 129° Southeast 175 201 14,000 1,581 Climbing Denver Center
Mon 09:14:23 PM 42.8831 -108.1475 132° Southeast 177 204 15,600 1,388 Climbing Denver Center
Mon 09:15:00 PM 42.7106 -108.0150 120° Southeast  Level Estimated
Mon 09:15:23 PM 42.8553 -108.0900 123° Southeast 185 213 16,800  Level Salt Lake Center
Mon 09:17:29 PM 42.7678 -107.9736 136° Southeast 208 239 18,500 830 Climbing Denver Center
Mon 09:18:31 PM 42.7272 -107.9178 135° Southeast 215 247 19,400 878 Climbing Denver Center
Mon 09:19:32 PM 42.6850 -107.8481 129° Southeast 214 246 20,300 750 Climbing Denver Center
Mon 09:20:31 PM 42.6506 -107.7889 128° Southeast 213 245 20,900 400 Climbing Salt Lake Center
Mon 09:21:32 PM 42.6108 -107.7261 131° Southeast 223 257 21,100 49 Climbing Salt Lake Center
Mon 09:22:34 PM 42.5553 -107.6478 134° Southeast 251 289 21,000 -32 Descending Salt Lake Center
Mon 09:24:37 PM 42.4644 -107.5050 131° Southeast 264 304 21,000  Level Salt Lake Center
Mon 09:25:38 PM 42.4119 -107.4236 131° Southeast 261 300 21,000 47 Level Salt Lake Center
Mon 09:26:45 PM 42.3606 -107.3411 130° Southeast 258 297 21,100  Climbing Denver Center
Mon 09:27:47 PM 42.3183 -107.2700 129° Southeast 253 291 21,000 -48 Descending Denver Center
Mon 09:28:49 PM 42.2683 -107.1878 129° Southeast 255 293 21,000  Level Denver Center
Mon 09:29:51 PM 42.2211 -107.1231 135° Southeast 253 291 21,000  Level Denver Center
Mon 09:30:53 PM 42.1686 -107.0442 132° Southeast 254 292 21,000  Level Denver Center
Mon 09:31:55 PM 42.1247 -106.9767 131° Southeast 251 289 21,000  Level Denver Center
Mon 09:32:57 PM 42.0733 -106.8983 131° Southeast 250 288 21,000  Level Denver Center
Mon 09:33:58 PM 42.0289 -106.8289 131° Southeast 255 293 21,000 49 Level Denver Center
Mon 09:35:00 PM 41.9856 -106.7583 130° Southeast 256 295 21,100  Climbing Denver Center
Mon 09:36:02 PM 41.9317 -106.6800 133° Southeast 256 295 21,000  Descending Denver Center
Mon 09:38:06 PM 41.8267 -106.5350 134° Southeast 262 302 21,100  Climbing Denver Center
Mon 09:39:08 PM 41.7797 -106.4681 133° Southeast 258 297 21,000 -48 Descending Denver Center
Mon 09:40:10 PM 41.7256 -106.3867 132° Southeast 260 299 21,000  Level Denver Center
Mon 09:41:12 PM 41.6819 -106.3175 130° Southeast 258 297 21,000 48 Level Denver Center
Mon 09:42:14 PM 41.6283 -106.2364 131° Southeast 258 297 21,100  Climbing Denver Center
Mon 09:43:16 PM 41.5819 -106.1664 132° Southeast 261 300 21,000 -48 Descending Denver Center
Mon 09:44:18 PM 41.5289 -106.0883 132° Southeast 258 297 21,000  Level Denver Center
Mon 09:45:20 PM 41.4844 -106.0158 129° Southeast 261 300 21,000  Level Denver Center
Mon 09:46:22 PM 41.4331 -105.9317 129° Southeast 262 302 21,000 -48 Level Denver Center
Mon 09:47:24 PM 41.3878 -105.8592 130° Southeast 265 305 20,900 -484 Descending Denver Center
Mon 09:48:26 PM 41.3314 -105.7692 130° Southeast 281 323 20,000 -871 Descending Denver Center
Mon 09:49:28 PM 41.2828 -105.6914 130° Southeast 286 329 19,100 -774 Descending Denver Center
Mon 09:50:30 PM 41.2356 -105.6131 129° Southeast 285 328 18,400 -806 Descending Denver Center
Mon 09:52:34 PM 41.1333 -105.4447 129° Southeast 281 323 16,600 -839 Descending Denver Center
Mon 09:53:36 PM 41.0775 -105.3581 131° Southeast 279 321 15,800 -823 Descending Denver Center
Mon 09:54:38 PM 41.0308 -105.2872 131° Southeast 272 313 14,900 -1,050 Descending Denver Center
Mon 09:56:16 PM 40.9333 -105.1667 137° Southeast 271 312 13,000 -722 Descending Denver TRACON
Mon 09:57:16 PM 40.8833 -105.1167 143° Southeast 257 296 13,000 68 Level Denver TRACON
Mon 09:57:44 PM 40.8564 -105.1081 166° South 260 299 13,100 67 Climbing Denver Center
Mon 09:58:46 PM 40.7781 -105.0742 162° South 252 290 13,100 -48 Level Denver Center
Mon 09:59:48 PM 40.7072 -105.0450 163° South 270 311 13,000  Descending Denver Center
Mon 10:00:50 PM 40.6375 -105.0189 164° South 262 302 13,100 48 Climbing Denver Center
Mon 10:01:52 PM 40.5644 -104.9850 161° South 260 299 13,100 -48 Level Denver Center
Mon 10:02:54 PM 40.4953 -104.9569 163° South 260 299 13,000 -145 Descending Denver Center
Mon 10:03:56 PM 40.4206 -104.9222 161° South 262 302 12,800 -537 Descending Denver Center
Mon 10:04:57 PM 40.3469 -104.8906 162° South 281 323 11,900 -927 Descending Denver Center
Mon 10:05:59 PM 40.2733 -104.8572 161° South 282 325 10,900 -290 Descending Denver Center
Mon 10:08:03 PM 40.1197 -104.8278 172° South 267 307 11,000 32 Climbing Denver Center
Mon 10:09:05 PM 40.0433 -104.8136 172° South 261 300 11,000 48 Level Denver Center
Mon 10:10:07 PM 39.9719 -104.8022 173° South 258 297 11,100 49 Climbing Denver Center
Mon 10:11:08 PM 39.8947 -104.8056 182° South 259 298 11,100 -49 Level Denver Center
Mon 10:12:10 PM 39.8247 -104.8067 181° South 256 295 11,000 -387 Descending Denver Center
Mon 10:13:12 PM 39.7539 -104.8100 182° South 239 275 10,300 -823 Descending Denver Center
Mon 10:14:14 PM 39.6894 -104.7967 171° South 248 285 9,300 -927 Descending Denver Center
Mon 10:15:15 PM 39.6544 -104.7361 127° Southeast 243 280 8,400 -649 Descending Denver Center
Mon 10:17:19 PM 39.7467 -104.6625 32° Northeast 198 228 7,300 -742 Descending Denver Center
Mon 10:18:21 PM 39.8003 -104.6611 North 177 204 6,100 -878 Descending Denver Center
Mon 10:19:22 PM 39.8417 -104.6611 360° North 149 171 5,500 -590 Descending Denver Center

Login

Don't have an account? Register now (free) for customized features, flight alerts, and more!